sensor_id;sensor_type;location;lat;lon;timestamp;pressure;altitude;pressure_sealevel;temperature;humidity
18819;BME280;9537;45.594;9.294;2023-05-10T00:00:08;99271.09;;;17.01;84.17
18819;BME280;9537;45.594;9.294;2023-05-10T00:01:10;99274.41;;;16.97;84.14
18819;BME280;9537;45.594;9.294;2023-05-10T00:02:14;99272.13;;;17.00;84.28
18819;BME280;9537;45.594;9.294;2023-05-10T00:03:15;99269.47;;;17.00;84.24
18819;BME280;9537;45.594;9.294;2023-05-10T00:04:17;99269.31;;;16.95;84.78
18819;BME280;9537;45.594;9.294;2023-05-10T00:05:18;99273.59;;;16.96;84.76
18819;BME280;9537;45.594;9.294;2023-05-10T00:06:20;99261.91;;;16.97;84.86
18819;BME280;9537;45.594;9.294;2023-05-10T00:07:21;99272.59;;;16.97;84.38
18819;BME280;9537;45.594;9.294;2023-05-10T00:08:23;99262.38;;;16.94;84.48
18819;BME280;9537;45.594;9.294;2023-05-10T00:09:24;99267.16;;;17.04;83.64
18819;BME280;9537;45.594;9.294;2023-05-10T00:10:26;99264.28;;;17.05;83.37
18819;BME280;9537;45.594;9.294;2023-05-10T00:11:27;99265.66;;;17.08;83.32
18819;BME280;9537;45.594;9.294;2023-05-10T00:12:29;99256.84;;;17.07;82.89
18819;BME280;9537;45.594;9.294;2023-05-10T00:13:31;99261.16;;;17.08;83.03
18819;BME280;9537;45.594;9.294;2023-05-10T00:14:33;99258.94;;;17.05;83.45
18819;BME280;9537;45.594;9.294;2023-05-10T00:15:34;99261.22;;;17.02;83.76
18819;BME280;9537;45.594;9.294;2023-05-10T00:16:36;99255.09;;;17.01;83.82
18819;BME280;9537;45.594;9.294;2023-05-10T00:17:39;99249.16;;;16.99;84.05
18819;BME280;9537;45.594;9.294;2023-05-10T00:18:41;99260.88;;;16.98;84.08
18819;BME280;9537;45.594;9.294;2023-05-10T00:19:42;99258.19;;;16.98;84.14
18819;BME280;9537;45.594;9.294;2023-05-10T00:20:43;99264.59;;;16.97;84.35
18819;BME280;9537;45.594;9.294;2023-05-10T00:21:46;99262.56;;;16.93;84.63
18819;BME280;9537;45.594;9.294;2023-05-10T00:22:48;99263.63;;;16.92;84.66
18819;BME280;9537;45.594;9.294;2023-05-10T00:23:49;99256.66;;;16.91;84.66
18819;BME280;9537;45.594;9.294;2023-05-10T00:24:51;99261.41;;;16.88;84.65
18819;BME280;9537;45.594;9.294;2023-05-10T00:25:52;99256.88;;;16.89;84.77
18819;BME280;9537;45.594;9.294;2023-05-10T00:26:54;99259.56;;;16.89;83.98
18819;BME280;9537;45.594;9.294;2023-05-10T00:27:55;99259.09;;;16.92;83.81
18819;BME280;9537;45.594;9.294;2023-05-10T00:28:58;99254.38;;;16.94;83.17
18819;BME280;9537;45.594;9.294;2023-05-10T00:29:59;99255.84;;;16.90;83.48
18819;BME280;9537;45.594;9.294;2023-05-10T00:31:01;99258.50;;;16.90;83.76
18819;BME280;9537;45.594;9.294;2023-05-10T00:32:02;99259.31;;;16.91;83.81
18819;BME280;9537;45.594;9.294;2023-05-10T00:33:06;99261.97;;;16.91;83.92
18819;BME280;9537;45.594;9.294;2023-05-10T00:34:07;99254.88;;;16.84;84.16
18819;BME280;9537;45.594;9.294;2023-05-10T00:35:09;99256.94;;;16.82;84.64
18819;BME280;9537;45.594;9.294;2023-05-10T00:36:11;99260.81;;;16.86;84.39
18819;BME280;9537;45.594;9.294;2023-05-10T00:37:13;99259.56;;;16.89;84.23
18819;BME280;9537;45.594;9.294;2023-05-10T00:38:14;99258.59;;;16.83;83.86
18819;BME280;9537;45.594;9.294;2023-05-10T00:39:16;99255.31;;;16.81;83.98
18819;BME280;9537;45.594;9.294;2023-05-10T00:40:17;99261.84;;;16.85;83.68
18819;BME280;9537;45.594;9.294;2023-05-10T00:41:19;99264.06;;;16.88;82.66
18819;BME280;9537;45.594;9.294;2023-05-10T00:42:21;99255.13;;;16.83;82.72
18819;BME280;9537;45.594;9.294;2023-05-10T00:43:23;99259.84;;;16.81;83.01
18819;BME280;9537;45.594;9.294;2023-05-10T00:44:24;99259.84;;;16.81;82.73
18819;BME280;9537;45.594;9.294;2023-05-10T00:45:26;99261.69;;;16.80;82.41
18819;BME280;9537;45.594;9.294;2023-05-10T00:46:28;99265.63;;;16.78;82.46
18819;BME280;9537;45.594;9.294;2023-05-10T00:47:31;99265.00;;;16.76;82.84
18819;BME280;9537;45.594;9.294;2023-05-10T00:48:34;99262.56;;;16.74;82.96
18819;BME280;9537;45.594;9.294;2023-05-10T00:49:36;99267.06;;;16.74;83.37
18819;BME280;9537;45.594;9.294;2023-05-10T00:50:38;99264.41;;;16.74;83.73
18819;BME280;9537;45.594;9.294;2023-05-10T00:51:40;99257.44;;;16.73;83.87
18819;BME280;9537;45.594;9.294;2023-05-10T00:52:43;99260.72;;;16.75;83.57
18819;BME280;9537;45.594;9.294;2023-05-10T00:53:45;99255.16;;;16.76;83.83
18819;BME280;9537;45.594;9.294;2023-05-10T00:54:47;99256.81;;;16.77;83.40
18819;BME280;9537;45.594;9.294;2023-05-10T00:55:49;99257.44;;;16.73;83.59
18819;BME280;9537;45.594;9.294;2023-05-10T00:56:51;99263.81;;;16.72;83.94
18819;BME280;9537;45.594;9.294;2023-05-10T00:57:53;99257.06;;;16.69;84.29
18819;BME280;9537;45.594;9.294;2023-05-10T00:58:54;99251.94;;;16.67;84.30
18819;BME280;9537;45.594;9.294;2023-05-10T00:59:56;99250.84;;;16.75;83.82
18819;BME280;9537;45.594;9.294;2023-05-10T01:00:58;99257.22;;;16.74;83.47
18819;BME280;9537;45.594;9.294;2023-05-10T01:02:01;99253.38;;;16.70;83.92
18819;BME280;9537;45.594;9.294;2023-05-10T01:03:03;99257.06;;;16.69;84.11
18819;BME280;9537;45.594;9.294;2023-05-10T01:04:06;99260.56;;;16.70;84.17
18819;BME280;9537;45.594;9.294;2023-05-10T01:05:07;99248.28;;;16.69;83.93
18819;BME280;9537;45.594;9.294;2023-05-10T01:06:10;99249.72;;;16.64;84.03
18819;BME280;9537;45.594;9.294;2023-05-10T01:07:12;99245.44;;;16.63;84.25
18819;BME280;9537;45.594;9.294;2023-05-10T01:08:14;99246.25;;;16.64;84.30
18819;BME280;9537;45.594;9.294;2023-05-10T01:09:15;99248.72;;;16.65;84.33
18819;BME280;9537;45.594;9.294;2023-05-10T01:10:17;99248.56;;;16.60;84.45
18819;BME280;9537;45.594;9.294;2023-05-10T01:11:18;99245.13;;;16.53;84.91
18819;BME280;9537;45.594;9.294;2023-05-10T01:12:20;99244.41;;;16.46;85.45
18819;BME280;9537;45.594;9.294;2023-05-10T01:13:31;99244.56;;;16.51;85.15
18819;BME280;9537;45.594;9.294;2023-05-10T01:14:35;99241.47;;;16.54;84.90
18819;BME280;9537;45.594;9.294;2023-05-10T01:15:37;99242.31;;;16.48;85.04
18819;BME280;9537;45.594;9.294;2023-05-10T01:16:40;99241.94;;;16.44;85.22
18819;BME280;9537;45.594;9.294;2023-05-10T01:17:44;99241.94;;;16.44;85.32
18819;BME280;9537;45.594;9.294;2023-05-10T01:18:48;99230.47;;;16.44;85.11
18819;BME280;9537;45.594;9.294;2023-05-10T01:19:51;99231.53;;;16.43;85.14
18819;BME280;9537;45.594;9.294;2023-05-10T01:21:01;99236.25;;;16.41;84.99
18819;BME280;9537;45.594;9.294;2023-05-10T01:22:17;99231.72;;;16.41;84.90
18819;BME280;9537;45.594;9.294;2023-05-10T01:27:24;99225.00;;;16.39;84.59
18819;BME280;9537;45.594;9.294;2023-05-10T01:28:47;99242.03;;;16.38;84.35
18819;BME280;9537;45.594;9.294;2023-05-10T01:30:15;99229.75;;;16.37;84.13
18819;BME280;9537;45.594;9.294;2023-05-10T01:31:38;99234.56;;;16.28;83.79
18819;BME280;9537;45.594;9.294;2023-05-10T01:32:46;99234.97;;;16.25;84.13
18819;BME280;9537;45.594;9.294;2023-05-10T01:33:55;99237.22;;;16.28;84.18
18819;BME280;9537;45.594;9.294;2023-05-10T01:35:01;99227.72;;;16.32;84.07
18819;BME280;9537;45.594;9.294;2023-05-10T01:36:08;99236.78;;;16.31;83.75
18819;BME280;9537;45.594;9.294;2023-05-10T01:37:15;99235.56;;;16.27;83.85
18819;BME280;9537;45.594;9.294;2023-05-10T01:38:26;99234.75;;;16.27;84.03
18819;BME280;9537;45.594;9.294;2023-05-10T01:39:36;99234.75;;;16.27;84.09
18819;BME280;9537;45.594;9.294;2023-05-10T01:40:42;99232.69;;;16.29;83.65
18819;BME280;9537;45.594;9.294;2023-05-10T01:41:51;99225.88;;;16.33;83.02
18819;BME280;9537;45.594;9.294;2023-05-10T01:43:00;99225.50;;;16.29;83.17
18819;BME280;9537;45.594;9.294;2023-05-10T01:44:11;99228.38;;;16.28;82.96
18819;BME280;9537;45.594;9.294;2023-05-10T01:45:22;99229.63;;;16.25;83.12
18819;BME280;9537;45.594;9.294;2023-05-10T01:46:30;99231.94;;;16.21;83.06
18819;BME280;9537;45.594;9.294;2023-05-10T01:47:37;99230.75;;;16.17;83.31
18819;BME280;9537;45.594;9.294;2023-05-10T01:48:47;99229.50;;;16.20;83.26
18819;BME280;9537;45.594;9.294;2023-05-10T01:49:51;99220.09;;;16.17;83.27
18819;BME280;9537;45.594;9.294;2023-05-10T01:50:54;99224.38;;;16.18;83.15
18819;BME280;9537;45.594;9.294;2023-05-10T01:52:06;99218.88;;;16.13;82.38
18819;BME280;9537;45.594;9.294;2023-05-10T01:53:10;99223.19;;;16.14;81.93
18819;BME280;9537;45.594;9.294;2023-05-10T01:54:14;99220.53;;;16.14;81.90
18819;BME280;9537;45.594;9.294;2023-05-10T01:55:21;99221.34;;;16.15;81.87
18819;BME280;9537;45.594;9.294;2023-05-10T01:56:26;99222.16;;;16.15;81.87
18819;BME280;9537;45.594;9.294;2023-05-10T01:57:33;99221.34;;;16.15;82.12
18819;BME280;9537;45.594;9.294;2023-05-10T01:58:36;99218.25;;;16.18;81.97
18819;BME280;9537;45.594;9.294;2023-05-10T01:59:43;99228.72;;;16.13;81.95
18819;BME280;9537;45.594;9.294;2023-05-10T02:00:47;99232.66;;;16.10;82.18
18819;BME280;9537;45.594;9.294;2023-05-10T02:01:51;99222.44;;;16.07;82.11
18819;BME280;9537;45.594;9.294;2023-05-10T02:02:55;99223.47;;;16.06;82.45
18819;BME280;9537;45.594;9.294;2023-05-10T02:03:58;99229.81;;;16.05;82.78
18819;BME280;9537;45.594;9.294;2023-05-10T02:05:02;99230.25;;;16.02;82.79
18819;BME280;9537;45.594;9.294;2023-05-10T02:06:05;99227.00;;;16.00;82.90
18819;BME280;9537;45.594;9.294;2023-05-10T02:07:08;99233.53;;;16.04;82.56
18819;BME280;9537;45.594;9.294;2023-05-10T02:08:11;99232.91;;;16.02;82.30
18819;BME280;9537;45.594;9.294;2023-05-10T02:09:16;99228.25;;;15.97;82.58
18819;BME280;9537;45.594;9.294;2023-05-10T02:10:18;99228.88;;;15.99;82.67
18819;BME280;9537;45.594;9.294;2023-05-10T02:11:21;99229.81;;;16.05;82.30
18819;BME280;9537;45.594;9.294;2023-05-10T02:12:24;99228.44;;;16.03;82.21
18819;BME280;9537;45.594;9.294;2023-05-10T02:13:27;99225.16;;;16.01;82.61
18819;BME280;9537;45.594;9.294;2023-05-10T02:14:30;99231.91;;;16.03;nan
18819;BME280;9537;45.594;9.294;2023-05-10T02:15:34;99230.50;;;16.01;82.24
18819;BME280;9537;45.594;9.294;2023-05-10T02:16:38;99232.47;;;16.05;81.83
18819;BME280;9537;45.594;9.294;2023-05-10T02:17:42;99230.88;;;16.04;82.06
18819;BME280;9537;45.594;9.294;2023-05-10T02:18:43;99230.88;;;16.04;82.44
18819;BME280;9537;45.594;9.294;2023-05-10T02:19:48;99233.16;;;16.01;82.48
18819;BME280;9537;45.594;9.294;2023-05-10T02:20:51;99229.88;;;15.98;82.82
18819;BME280;9537;45.594;9.294;2023-05-10T02:21:55;99227.22;;;15.98;82.52
18819;BME280;9537;45.594;9.294;2023-05-10T02:22:57;99228.25;;;15.97;82.76
18819;BME280;9537;45.594;9.294;2023-05-10T02:24:01;99222.78;;;15.92;82.97
18819;BME280;9537;45.594;9.294;2023-05-10T02:25:04;99229.13;;;15.91;83.14
18819;BME280;9537;45.594;9.294;2023-05-10T02:26:07;99225.44;;;15.92;83.10
18819;BME280;9537;45.594;9.294;2023-05-10T02:27:10;99225.44;;;15.92;83.29
18819;BME280;9537;45.594;9.294;2023-05-10T02:28:14;99225.88;;;15.89;82.89
18819;BME280;9537;45.594;9.294;2023-05-10T02:29:18;99231.41;;;15.88;83.57
18819;BME280;9537;45.594;9.294;2023-05-10T02:30:20;99229.78;;;15.87;83.13
18819;BME280;9537;45.594;9.294;2023-05-10T02:31:23;99229.78;;;15.87;83.20
18819;BME280;9537;45.594;9.294;2023-05-10T02:32:26;99221.78;;;15.87;83.38
18819;BME280;9537;45.594;9.294;2023-05-10T02:33:30;99226.94;;;15.82;83.44
18819;BME280;9537;45.594;9.294;2023-05-10T02:34:33;99229.78;;;15.87;83.24
18819;BME280;9537;45.594;9.294;2023-05-10T02:35:38;99225.50;;;15.86;83.41
18819;BME280;9537;45.594;9.294;2023-05-10T02:36:39;99220.38;;;15.84;83.92
18819;BME280;9537;45.594;9.294;2023-05-10T02:37:43;99221.59;;;15.88;82.79
18819;BME280;9537;45.594;9.294;2023-05-10T02:38:45;99230.00;;;15.85;83.01
18819;BME280;9537;45.594;9.294;2023-05-10T02:39:49;99222.41;;;15.89;82.98
18819;BME280;9537;45.594;9.294;2023-05-10T02:40:52;99227.13;;;15.87;83.00
18819;BME280;9537;45.594;9.294;2023-05-10T02:41:56;99222.22;;;15.84;83.49
18819;BME280;9537;45.594;9.294;2023-05-10T02:42:59;99226.50;;;15.85;83.52
18819;BME280;9537;45.594;9.294;2023-05-10T02:44:03;99219.56;;;15.84;83.65
18819;BME280;9537;45.594;9.294;2023-05-10T02:45:10;99226.50;;;15.85;83.57
18819;BME280;9537;45.594;9.294;2023-05-10T02:46:13;99224.09;;;15.83;84.03
18819;BME280;9537;45.594;9.294;2023-05-10T02:47:14;99222.03;;;15.85;83.89
18819;BME280;9537;45.594;9.294;2023-05-10T02:48:16;99219.56;;;15.84;83.54
18819;BME280;9537;45.594;9.294;2023-05-10T02:49:17;99221.41;;;15.83;83.58
18819;BME280;9537;45.594;9.294;2023-05-10T02:50:21;99226.38;;;15.80;83.81
18819;BME280;9537;45.594;9.294;2023-05-10T02:51:25;99223.72;;;15.80;84.29
18819;BME280;9537;45.594;9.294;2023-05-10T02:52:38;99226.50;;;15.85;84.02
18819;BME280;9537;45.594;9.294;2023-05-10T02:53:44;99217.53;;;15.79;84.13
18819;BME280;9537;45.594;9.294;2023-05-10T02:54:51;99218.78;;;15.76;84.45
18819;BME280;9537;45.594;9.294;2023-05-10T02:55:54;99222.50;;;15.75;84.36
18819;BME280;9537;45.594;9.294;2023-05-10T02:57:00;99224.56;;;15.73;85.13
18819;BME280;9537;45.594;9.294;2023-05-10T02:58:04;99217.97;;;15.76;84.90
18819;BME280;9537;45.594;9.294;2023-05-10T02:59:06;99223.09;;;15.77;84.97
18819;BME280;9537;45.594;9.294;2023-05-10T03:00:08;99224.97;;;15.77;85.17
18819;BME280;9537;45.594;9.294;2023-05-10T03:01:10;99224.53;;;15.80;85.23
18819;BME280;9537;45.594;9.294;2023-05-10T03:02:12;99224.53;;;15.80;85.32
18819;BME280;9537;45.594;9.294;2023-05-10T03:03:14;99227.38;;;15.79;85.17
18819;BME280;9537;45.594;9.294;2023-05-10T03:04:15;99231.09;;;15.77;85.38
18819;BME280;9537;45.594;9.294;2023-05-10T03:05:17;99228.44;;;15.77;85.81
18819;BME280;9537;45.594;9.294;2023-05-10T03:06:18;99226.56;;;15.78;85.61
18819;BME280;9537;45.594;9.294;2023-05-10T03:07:22;99228.44;;;15.77;85.27
18819;BME280;9537;45.594;9.294;2023-05-10T03:08:23;99222.06;;;15.79;85.05
18819;BME280;9537;45.594;9.294;2023-05-10T03:09:25;99227.81;;;15.75;85.26
18819;BME280;9537;45.594;9.294;2023-05-10T03:10:29;99230.28;;;15.77;85.16
18819;BME280;9537;45.594;9.294;2023-05-10T03:11:43;99225.97;;;15.76;85.29
18819;BME280;9537;45.594;9.294;2023-05-10T03:12:57;99230.47;;;15.75;85.58
18819;BME280;9537;45.594;9.294;2023-05-10T03:14:12;99230.28;;;15.77;85.54
18819;BME280;9537;45.594;9.294;2023-05-10T03:15:21;99230.47;;;15.75;85.60
18819;BME280;9537;45.594;9.294;2023-05-10T03:16:27;99231.53;;;15.74;84.72
18819;BME280;9537;45.594;9.294;2023-05-10T03:17:33;99228.88;;;15.74;84.91
18819;BME280;9537;45.594;9.294;2023-05-10T03:18:42;99235.59;;;15.77;85.07
18819;BME280;9537;45.594;9.294;2023-05-10T03:19:48;99232.78;;;15.72;85.63
18819;BME280;9537;45.594;9.294;2023-05-10T03:20:57;99238.53;;;15.69;85.87
18819;BME280;9537;45.594;9.294;2023-05-10T03:22:04;99242.19;;;15.74;84.95
18819;BME280;9537;45.594;9.294;2023-05-10T03:23:21;99240.97;;;15.70;84.83
18819;BME280;9537;45.594;9.294;2023-05-10T03:24:27;99239.94;;;15.71;85.07
18819;BME280;9537;45.594;9.294;2023-05-10T03:25:29;99237.88;;;15.73;84.98
18819;BME280;9537;45.594;9.294;2023-05-10T03:26:32;99233.16;;;15.75;84.79
18819;BME280;9537;45.594;9.294;2023-05-10T03:27:36;99240.53;;;15.73;84.89
18819;BME280;9537;45.594;9.294;2023-05-10T03:28:40;99238.69;;;15.74;84.61
18819;BME280;9537;45.594;9.294;2023-05-10T03:29:44;99239.72;;;15.73;85.11
18819;BME280;9537;45.594;9.294;2023-05-10T03:30:47;99240.75;;;15.72;84.87
18819;BME280;9537;45.594;9.294;2023-05-10T03:31:49;99244.84;;;15.74;84.99
18819;BME280;9537;45.594;9.294;2023-05-10T03:32:50;99231.72;;;15.73;84.76
18819;BME280;9537;45.594;9.294;2023-05-10T03:33:53;99240.75;;;15.72;84.86
18819;BME280;9537;45.594;9.294;2023-05-10T03:34:54;99245.28;;;15.71;85.01
18819;BME280;9537;45.594;9.294;2023-05-10T03:35:56;99242.38;;;15.73;84.59
18819;BME280;9537;45.594;9.294;2023-05-10T03:36:57;99249.78;;;15.71;84.63
18819;BME280;9537;45.594;9.294;2023-05-10T03:37:59;99243.19;;;15.73;84.59
18819;BME280;9537;45.594;9.294;2023-05-10T03:39:02;99246.09;;;15.72;84.52
18819;BME280;9537;45.594;9.294;2023-05-10T03:40:05;99244.66;;;15.69;84.53
18819;BME280;9537;45.594;9.294;2023-05-10T03:41:07;99247.72;;;15.66;84.89
18819;BME280;9537;45.594;9.294;2023-05-10T03:42:09;99251.63;;;15.64;84.99
18819;BME280;9537;45.594;9.294;2023-05-10T03:43:12;99238.94;;;15.66;84.97
18819;BME280;9537;45.594;9.294;2023-05-10T03:44:14;99244.66;;;15.69;85.13
18819;BME280;9537;45.594;9.294;2023-05-10T03:45:15;99243.22;;;15.67;85.40
18819;BME280;9537;45.594;9.294;2023-05-10T03:46:17;99248.13;;;15.70;85.39
18819;BME280;9537;45.594;9.294;2023-05-10T03:47:18;99243.03;;;15.68;85.63
18819;BME280;9537;45.594;9.294;2023-05-10T03:48:21;99246.50;;;15.69;85.43
18819;BME280;9537;45.594;9.294;2023-05-10T03:49:22;99245.06;;;15.66;85.91
18819;BME280;9537;45.594;9.294;2023-05-10T03:50:24;99241.19;;;15.69;85.78
18819;BME280;9537;45.594;9.294;2023-05-10T03:51:25;99245.06;;;15.66;85.37
18819;BME280;9537;45.594;9.294;2023-05-10T03:52:28;99244.88;;;15.61;85.71
18819;BME280;9537;45.594;9.294;2023-05-10T03:53:30;99246.31;;;15.64;85.54
18819;BME280;9537;45.594;9.294;2023-05-10T03:54:33;99250.38;;;15.66;85.38
18819;BME280;9537;45.594;9.294;2023-05-10T03:55:35;99251.63;;;15.64;85.36
18819;BME280;9537;45.594;9.294;2023-05-10T03:56:36;99247.34;;;15.63;85.24
18819;BME280;9537;45.594;9.294;2023-05-10T03:57:38;99247.94;;;15.65;85.44
18819;BME280;9537;45.594;9.294;2023-05-10T03:58:39;99254.50;;;15.62;84.98
18819;BME280;9537;45.594;9.294;2023-05-10T03:59:42;99255.53;;;15.61;84.89
18819;BME280;9537;45.594;9.294;2023-05-10T04:00:43;99258.00;;;15.63;84.82
18819;BME280;9537;45.594;9.294;2023-05-10T04:01:46;99259.63;;;15.64;84.70
18819;BME280;9537;45.594;9.294;2023-05-10T04:02:47;99256.16;;;15.63;84.84
18819;BME280;9537;45.594;9.294;2023-05-10T04:03:49;99260.66;;;15.63;84.86
18819;BME280;9537;45.594;9.294;2023-05-10T04:04:50;99265.75;;;15.64;85.06
18819;BME280;9537;45.594;9.294;2023-05-10T04:05:58;99262.88;;;15.66;84.32
18819;BME280;9537;45.594;9.294;2023-05-10T04:06:59;99258.19;;;15.68;84.02
18819;BME280;9537;45.594;9.294;2023-05-10T04:08:02;99269.66;;;15.62;84.37
18819;BME280;9537;45.594;9.294;2023-05-10T04:09:03;99263.31;;;15.63;84.36
18819;BME280;9537;45.594;9.294;2023-05-10T04:10:08;99260.88;;;15.61;85.21
18819;BME280;9537;45.594;9.294;2023-05-10T04:11:10;99271.31;;;15.63;85.57
18819;BME280;9537;45.594;9.294;2023-05-10T04:12:13;99271.31;;;15.63;85.43
18819;BME280;9537;45.594;9.294;2023-05-10T04:13:14;99262.88;;;15.66;84.62
18819;BME280;9537;45.594;9.294;2023-05-10T04:14:16;99267.59;;;15.64;84.63
18819;BME280;9537;45.594;9.294;2023-05-10T04:15:17;99269.28;;;15.58;85.35
18819;BME280;9537;45.594;9.294;2023-05-10T04:16:19;99267.84;;;15.55;85.29
18819;BME280;9537;45.594;9.294;2023-05-10T04:17:21;99264.75;;;15.59;85.71
18819;BME280;9537;45.594;9.294;2023-05-10T04:18:23;99268.25;;;15.59;85.46
18819;BME280;9537;45.594;9.294;2023-05-10T04:19:24;99269.88;;;15.60;85.33
18819;BME280;9537;45.594;9.294;2023-05-10T04:20:26;99268.84;;;15.61;85.58
18819;BME280;9537;45.594;9.294;2023-05-10T04:21:27;99273.13;;;15.62;85.30
18819;BME280;9537;45.594;9.294;2023-05-10T04:22:29;99271.75;;;15.60;85.46
18819;BME280;9537;45.594;9.294;2023-05-10T04:23:30;99273.78;;;15.58;85.15
18819;BME280;9537;45.594;9.294;2023-05-10T04:24:32;99272.75;;;15.59;85.26
18819;BME280;9537;45.594;9.294;2023-05-10T04:25:35;99271.94;;;15.58;85.16
18819;BME280;9537;45.594;9.294;2023-05-10T04:26:37;99271.94;;;15.58;85.47
18819;BME280;9537;45.594;9.294;2023-05-10T04:27:38;99274.59;;;15.58;85.60
18819;BME280;9537;45.594;9.294;2023-05-10T04:28:40;99275.41;;;15.59;85.23
18819;BME280;9537;45.594;9.294;2023-05-10T04:29:41;99281.56;;;15.59;85.29
18819;BME280;9537;45.594;9.294;2023-05-10T04:30:43;99282.38;;;15.60;84.97
18819;BME280;9537;45.594;9.294;2023-05-10T04:31:44;99284.63;;;15.63;84.97
18819;BME280;9537;45.594;9.294;2023-05-10T04:32:46;99274.16;;;15.61;85.00
18819;BME280;9537;45.594;9.294;2023-05-10T04:33:48;99275.41;;;15.59;84.92
18819;BME280;9537;45.594;9.294;2023-05-10T04:34:50;99279.50;;;15.61;85.35
18819;BME280;9537;45.594;9.294;2023-05-10T04:35:52;99272.75;;;15.59;85.30
18819;BME280;9537;45.594;9.294;2023-05-10T04:36:53;99270.31;;;15.57;85.59
18819;BME280;9537;45.594;9.294;2023-05-10T04:37:55;99268.09;;;15.54;85.39
18819;BME280;9537;45.594;9.294;2023-05-10T04:38:56;99261.94;;;15.53;85.82
18819;BME280;9537;45.594;9.294;2023-05-10T04:39:58;99268.91;;;15.54;85.53
18819;BME280;9537;45.594;9.294;2023-05-10T04:41:08;99261.72;;;15.55;85.59
18819;BME280;9537;45.594;9.294;2023-05-10T04:42:11;99267.25;;;15.53;85.62
18819;BME280;9537;45.594;9.294;2023-05-10T04:43:12;99267.47;;;15.52;85.38
18819;BME280;9537;45.594;9.294;2023-05-10T04:44:14;99263.19;;;15.51;85.34
18819;BME280;9537;45.594;9.294;2023-05-10T04:45:15;99263.78;;;15.53;85.53
18819;BME280;9537;45.594;9.294;2023-05-10T04:46:17;99268.09;;;15.54;85.44
18819;BME280;9537;45.594;9.294;2023-05-10T04:47:19;99266.44;;;15.53;85.31
18819;BME280;9537;45.594;9.294;2023-05-10T04:48:20;99268.53;;;15.51;85.28
18819;BME280;9537;45.594;9.294;2023-05-10T04:49:22;99257.88;;;15.51;85.05
18819;BME280;9537;45.594;9.294;2023-05-10T04:50:23;99256.03;;;15.51;85.10
18819;BME280;9537;45.594;9.294;2023-05-10T04:51:25;99257.03;;;15.50;84.77
18819;BME280;9537;45.594;9.294;2023-05-10T04:52:26;99248.41;;;15.55;84.32
18819;BME280;9537;45.594;9.294;2023-05-10T04:53:28;99247.59;;;15.54;84.24
18819;BME280;9537;45.594;9.294;2023-05-10T04:54:29;99255.97;;;15.58;83.77
18819;BME280;9537;45.594;9.294;2023-05-10T04:55:31;99247.19;;;15.58;83.44
18819;BME280;9537;45.594;9.294;2023-05-10T04:56:34;99251.06;;;15.55;83.63
18819;BME280;9537;45.594;9.294;2023-05-10T04:57:36;99251.88;;;15.55;83.32
18819;BME280;9537;45.594;9.294;2023-05-10T04:58:37;99249.47;;;15.54;83.39
18819;BME280;9537;45.594;9.294;2023-05-10T04:59:39;99251.28;;;15.53;83.02
18819;BME280;9537;45.594;9.294;2023-05-10T05:00:40;99256.84;;;15.52;83.42
18819;BME280;9537;45.594;9.294;2023-05-10T05:01:42;99249.66;;;15.52;83.18
18819;BME280;9537;45.594;9.294;2023-05-10T05:02:44;99241.91;;;15.51;83.13
18819;BME280;9537;45.594;9.294;2023-05-10T05:03:46;99253.13;;;15.53;82.69
18819;BME280;9537;45.594;9.294;2023-05-10T05:04:47;99238.19;;;15.52;83.08
18819;BME280;9537;45.594;9.294;2023-05-10T05:05:49;99239.81;;;15.53;83.26
18819;BME280;9537;45.594;9.294;2023-05-10T05:06:50;99239.38;;;15.56;83.32
18819;BME280;9537;45.594;9.294;2023-05-10T05:07:52;99232.88;;;15.52;83.19
18819;BME280;9537;45.594;9.294;2023-05-10T05:08:53;99228.81;;;15.49;83.40
18819;BME280;9537;45.594;9.294;2023-05-10T05:09:55;99248.25;;;15.50;83.82
18819;BME280;9537;45.594;9.294;2023-05-10T05:10:56;99236.97;;;15.48;83.66
18819;BME280;9537;45.594;9.294;2023-05-10T05:12:00;99252.56;;;15.44;84.04
18819;BME280;9537;45.594;9.294;2023-05-10T05:13:01;99252.75;;;15.49;84.01
18819;BME280;9537;45.594;9.294;2023-05-10T05:14:04;99250.03;;;15.56;83.62
18819;BME280;9537;45.594;9.294;2023-05-10T05:15:05;99254.34;;;15.57;82.57
18819;BME280;9537;45.594;9.294;2023-05-10T05:16:08;99268.03;;;15.61;82.21
18819;BME280;9537;45.594;9.294;2023-05-10T05:17:10;99270.31;;;15.57;82.54
18819;BME280;9537;45.594;9.294;2023-05-10T05:18:12;99269.72;;;15.55;82.49
18819;BME280;9537;45.594;9.294;2023-05-10T05:19:13;99267.84;;;15.55;82.84
18819;BME280;9537;45.594;9.294;2023-05-10T05:20:15;99267.06;;;15.55;82.68
18819;BME280;9537;45.594;9.294;2023-05-10T05:21:18;99271.75;;;15.53;82.63
18819;BME280;9537;45.594;9.294;2023-05-10T05:22:20;99261.53;;;15.50;83.50
18819;BME280;9537;45.594;9.294;2023-05-10T05:23:27;99267.31;;;15.47;83.99
18819;BME280;9537;45.594;9.294;2023-05-10T05:24:34;99252.56;;;15.44;84.15
18819;BME280;9537;45.594;9.294;2023-05-10T05:25:36;99256.28;;;15.43;84.15
18819;BME280;9537;45.594;9.294;2023-05-10T05:26:38;99238.06;;;15.40;84.43
18819;BME280;9537;45.594;9.294;2023-05-10T05:27:41;99228.44;;;15.39;84.55
18819;BME280;9537;45.594;9.294;2023-05-10T05:28:43;99222.31;;;15.39;84.67
18819;BME280;9537;45.594;9.294;2023-05-10T05:29:44;99200.59;;;15.42;84.56
18819;BME280;9537;45.594;9.294;2023-05-10T05:30:45;99206.91;;;15.47;84.53
18819;BME280;9537;45.594;9.294;2023-05-10T05:31:47;99203.81;;;15.50;84.01
18819;BME280;9537;45.594;9.294;2023-05-10T05:32:48;99207.50;;;15.49;83.94
18819;BME280;9537;45.594;9.294;2023-05-10T05:33:51;99214.88;;;15.47;84.14
18819;BME280;9537;45.594;9.294;2023-05-10T05:34:52;99223.28;;;15.44;84.40
18819;BME280;9537;45.594;9.294;2023-05-10T05:35:54;99229.06;;;15.41;84.34
18819;BME280;9537;45.594;9.294;2023-05-10T05:36:55;99238.88;;;15.41;84.48
18819;BME280;9537;45.594;9.294;2023-05-10T05:37:57;99248.50;;;15.42;84.84
18819;BME280;9537;45.594;9.294;2023-05-10T05:39:00;99247.31;;;15.38;85.15
18819;BME280;9537;45.594;9.294;2023-05-10T05:40:02;99245.44;;;15.38;84.86
18819;BME280;9537;45.594;9.294;2023-05-10T05:41:03;99250.38;;;15.35;85.36
18819;BME280;9537;45.594;9.294;2023-05-10T05:42:05;99253.88;;;15.35;85.44
18819;BME280;9537;45.594;9.294;2023-05-10T05:43:08;99257.94;;;15.38;85.45